Time;durP1;ratioP1;P1;durP2;ratioP2;P2;SDS_P1;SDS_P2;PMS_P1;PMS_P2;Temp;Humidity;BMP_temperature;BMP_pressure;BME280_temperature;BME280_humidity;BME280_pressure;Samples;Min_cycle;Max_cycle;Signal;HPM_P1;HPM_P2
2023/01/13 00:01:55;;;;;;;19.02;4.15;;;;;;;;;;5035244;28;20095;-74
2023/01/13 00:04:21;;;;;;;21.00;4.90;;;;;;;;;;5019193;28;20045;-74
2023/01/13 00:06:47;;;;;;;24.40;4.40;;;;;;;;;;5035343;28;20037;-74
2023/01/13 00:09:13;;;;;;;19.73;4.60;;;;;;;;;;5052638;28;20041;-74
2023/01/13 00:11:39;;;;;;;19.67;3.60;;;;;;;;;;5035595;28;20118;-74
2023/01/13 00:14:05;;;;;;;15.40;3.65;;;;;;;;;;5019087;28;20132;-74
2023/01/13 00:16:31;;;;;;;35.55;5.38;;;;;;;;;;5051997;28;20512;-74
2023/01/13 00:18:57;;;;;;;24.40;5.18;;;;;;;;;;5041043;28;20167;-74
2023/01/13 00:21:24;;;;;;;25.25;4.55;;;;;;;;;;5040569;28;20077;-74
2023/01/13 00:23:54;;;;;;;20.73;4.68;;;;;;;;;;5032002;28;20063;-74
2023/01/13 00:26:22;;;;;;;27.10;4.90;;;;;;;;;;5044614;28;20150;-74
2023/01/13 00:28:48;;;;;;;28.85;5.93;;;;;;;;;;5053639;28;20135;-76
2023/01/13 00:31:15;;;;;;;29.58;4.97;;;;;;;;;;5035865;28;20416;-74
2023/01/13 00:33:42;;;;;;;31.35;5.18;;;;;;;;;;5035109;28;20073;-74
2023/01/13 00:36:10;;;;;;;37.33;5.15;;;;;;;;;;5015474;28;20133;-74
2023/01/13 00:38:37;;;;;;;26.75;5.50;;;;;;;;;;5030460;28;20049;-74
2023/01/13 00:41:23;;;;;;;25.40;5.95;;;;;;;;;;5035270;28;20079;-74
2023/01/13 00:43:49;;;;;;;;;;;;;;;;;;5040687;28;20087;-74
2023/01/13 00:46:17;;;;;;;35.33;6.50;;;;;;;;;;5041711;28;20385;-73
2023/01/13 00:48:44;;;;;;;29.77;5.50;;;;;;;;;;5035265;28;20485;-74
2023/01/13 00:51:10;;;;;;;32.92;5.78;;;;;;;;;;5031082;28;20490;-74
2023/01/13 00:53:37;;;;;;;34.42;6.55;;;;;;;;;;5033674;28;20041;-74
2023/01/13 00:56:08;;;;;;;32.20;5.80;;;;;;;;;;5032190;28;20041;-74
2023/01/13 00:58:35;;;;;;;31.10;5.63;;;;;;;;;;5034980;28;20076;-74
2023/01/13 01:01:06;;;;;;;28.17;5.43;;;;;;;;;;5031840;28;20556;-74
2023/01/13 01:03:32;;;;;;;24.45;5.13;;;;;;;;;;5034724;28;20071;-74
2023/01/13 01:06:03;;;;;;;32.97;6.07;;;;;;;;;;5043582;28;20112;-74
2023/01/13 01:08:29;;;;;;;25.77;6.00;;;;;;;;;;5031820;28;20152;-74
2023/01/13 01:11:02;;;;;;;33.88;5.82;;;;;;;;;;5034756;28;20095;-74
2023/01/13 01:13:28;;;;;;;26.30;4.78;;;;;;;;;;5031366;28;20046;-74
2023/01/13 01:15:54;;;;;;;31.55;6.10;;;;;;;;;;5032219;28;20091;-74
2023/01/13 01:18:20;;;;;;;27.15;4.88;;;;;;;;;;5037985;28;20042;-74
2023/01/13 01:20:46;;;;;;;28.17;5.60;;;;;;;;;;5034445;28;20041;-74
2023/01/13 01:23:12;;;;;;;34.03;5.70;;;;;;;;;;5046000;28;20107;-75
2023/01/13 01:25:38;;;;;;;34.60;5.60;;;;;;;;;;5033992;28;20049;-74
2023/01/13 01:28:04;;;;;;;34.70;6.40;;;;;;;;;;5034482;28;20550;-74
2023/01/13 01:30:30;;;;;;;32.60;5.97;;;;;;;;;;5031613;28;20045;-74
2023/01/13 01:32:56;;;;;;;34.47;5.78;;;;;;;;;;5015653;28;20083;-74
2023/01/13 01:35:22;;;;;;;34.08;6.63;;;;;;;;;;5040671;28;20099;-74
2023/01/13 01:37:48;;;;;;;31.92;6.18;;;;;;;;;;5040925;28;20045;-74
2023/01/13 01:40:15;;;;;;;32.38;6.10;;;;;;;;;;5034557;28;20131;-74
2023/01/13 01:45:27;;;;;;;27.63;5.90;;;;;;;;;;5047068;28;20111;-74
2023/01/13 01:47:56;;;;;;;29.60;6.25;;;;;;;;;;5033011;28;20094;-75
2023/01/13 01:50:22;;;;;;;27.50;5.97;;;;;;;;;;5034907;28;20044;-74
2023/01/13 01:52:51;;;;;;;35.78;7.15;;;;;;;;;;5018033;28;20077;-74
2023/01/13 01:55:22;;;;;;;34.40;5.88;;;;;;;;;;5034699;28;20128;-74
2023/01/13 01:57:51;;;;;;;26.20;6.28;;;;;;;;;;5034387;28;20083;-74
2023/01/13 02:00:17;;;;;;;31.90;6.00;;;;;;;;;;5052660;28;20045;-74
2023/01/13 02:02:44;;;;;;;30.60;6.60;;;;;;;;;;5052595;28;20064;-74
2023/01/13 02:05:10;;;;;;;34.17;6.18;;;;;;;;;;5034178;28;20049;-74
2023/01/13 02:07:38;;;;;;;40.70;5.82;;;;;;;;;;5052350;28;20041;-74
2023/01/13 02:10:05;;;;;;;36.83;6.25;;;;;;;;;;5052462;28;20079;-74
2023/01/13 02:12:32;;;;;;;34.33;6.15;;;;;;;;;;5054621;28;20179;-74
2023/01/13 02:15:00;;;;;;;33.72;5.75;;;;;;;;;;5037900;28;20084;-74
2023/01/13 02:17:29;;;;;;;30.48;6.60;;;;;;;;;;5052247;28;20406;-74
2023/01/13 02:20:14;;;;;;;43.72;6.95;;;;;;;;;;5034746;28;20049;-74
2023/01/13 02:22:58;;;;;;;30.15;6.47;;;;;;;;;;5005713;28;20040;-74
2023/01/13 02:25:43;;;;;;;34.83;5.40;;;;;;;;;;5054649;28;20063;-74
2023/01/13 02:28:22;;;;;;;26.77;5.78;;;;;;;;;;5034558;28;20057;-74
2023/01/13 02:33:50;;;;;;;35.28;6.50;;;;;;;;;;5037776;28;20048;-74
2023/01/13 02:36:24;;;;;;;28.98;4.93;;;;;;;;;;5034255;28;20038;-74
2023/01/13 02:39:00;;;;;;;31.77;5.97;;;;;;;;;;5036190;28;20148;-74
2023/01/13 02:44:24;;;;;;;28.67;4.93;;;;;;;;;;5000128;28;19973;-75
2023/01/13 02:46:53;;;;;;;35.60;6.10;;;;;;;;;;5037342;28;20440;-74
2023/01/13 02:49:23;;;;;;;31.33;5.40;;;;;;;;;;5021810;28;20076;-74
2023/01/13 02:51:51;;;;;;;39.30;6.68;;;;;;;;;;5053929;28;20433;-74
2023/01/13 02:54:25;;;;;;;28.00;4.90;;;;;;;;;;5017132;28;20041;-74
2023/01/13 02:56:53;;;;;;;39.88;6.00;;;;;;;;;;5037147;28;20032;-74
2023/01/13 02:59:20;;;;;;;28.55;6.45;;;;;;;;;;5020603;28;20056;-74
2023/01/13 03:01:47;;;;;;;34.47;6.03;;;;;;;;;;5033928;28;20410;-74
2023/01/13 03:04:13;;;;;;;34.90;6.13;;;;;;;;;;5019436;28;20485;-74
2023/01/13 03:07:01;;;;;;;29.88;5.82;;;;;;;;;;5040562;28;20037;-74
2023/01/13 03:09:32;;;;;;;27.42;5.65;;;;;;;;;;5035342;28;20534;-74
2023/01/13 03:12:07;;;;;;;27.38;5.32;;;;;;;;;;5053681;28;20444;-74
2023/01/13 03:14:33;;;;;;;28.98;5.03;;;;;;;;;;5043858;28;20515;-74
2023/01/13 03:17:15;;;;;;;26.77;5.07;;;;;;;;;;5036765;28;20120;-74
2023/01/13 03:19:44;;;;;;;34.05;5.78;;;;;;;;;;5043517;28;20049;-74
2023/01/13 03:22:26;;;;;;;29.95;5.28;;;;;;;;;;5043676;28;20041;-74
2023/01/13 03:24:59;;;;;;;33.53;6.50;;;;;;;;;;5037223;28;20049;-74
2023/01/13 03:27:45;;;;;;;29.48;6.78;;;;;;;;;;5036096;28;20045;-74
2023/01/13 03:30:11;;;;;;;;;;;;;;;;;;5042027;28;20033;-74
2023/01/13 03:32:44;;;;;;;30.13;5.65;;;;;;;;;;5033345;28;20376;-75
2023/01/13 03:35:33;;;;;;;28.73;5.68;;;;;;;;;;5049818;28;20044;-74
2023/01/13 03:38:05;;;;;;;28.33;5.13;;;;;;;;;;5022590;28;20449;-74
2023/01/13 03:40:33;;;;;;;18.38;4.25;;;;;;;;;;5044363;28;20049;-74
2023/01/13 03:45:54;;;;;;;30.42;5.25;;;;;;;;;;5050299;28;20124;-74
2023/01/13 03:48:22;;;;;;;30.83;4.97;;;;;;;;;;5043785;28;20058;-74
2023/01/13 03:50:50;;;;;;;25.10;3.90;;;;;;;;;;5035985;28;20561;-74
2023/01/13 03:53:19;;;;;;;32.72;5.07;;;;;;;;;;5053423;28;20124;-74
2023/01/13 03:55:48;;;;;;;29.45;5.35;;;;;;;;;;5036769;28;20065;-74
2023/01/13 03:58:22;;;;;;;29.65;5.43;;;;;;;;;;5042220;28;20043;-74
2023/01/13 04:00:54;;;;;;;30.92;4.70;;;;;;;;;;5040805;28;20083;-74
2023/01/13 04:03:31;;;;;;;25.85;5.10;;;;;;;;;;5052528;28;20037;-74
2023/01/13 04:06:00;;;;;;;27.95;5.13;;;;;;;;;;5038306;28;20045;-74
2023/01/13 04:08:27;;;;;;;31.38;5.18;;;;;;;;;;5032724;28;20430;-74
2023/01/13 04:10:53;;;;;;;23.05;4.60;;;;;;;;;;5047640;28;20045;-74
2023/01/13 04:13:21;;;;;;;31.55;5.35;;;;;;;;;;5032299;28;20046;-74
2023/01/13 04:15:48;;;;;;;27.77;4.63;;;;;;;;;;5032606;28;20041;-75
2023/01/13 04:18:22;;;;;;;27.15;4.78;;;;;;;;;;5027283;28;20128;-74
2023/01/13 04:20:50;;;;;;;28.33;5.43;;;;;;;;;;5043243;28;20196;-74
2023/01/13 04:23:17;;;;;;;26.50;4.95;;;;;;;;;;5034125;28;20060;-74
2023/01/13 04:25:44;;;;;;;29.55;5.13;;;;;;;;;;5052353;28;20044;-74
2023/01/13 04:28:10;;;;;;;28.92;6.63;;;;;;;;;;5015568;28;20068;-74
2023/01/13 04:30:36;;;;;;;23.30;4.60;;;;;;;;;;5035800;28;20126;-74
2023/01/13 04:33:03;;;;;;;21.70;4.65;;;;;;;;;;5053341;28;20499;-74
2023/01/13 04:35:29;;;;;;;27.67;4.78;;;;;;;;;;5037236;28;20045;-74
2023/01/13 04:37:55;;;;;;;28.38;5.90;;;;;;;;;;5034662;28;20084;-74
2023/01/13 04:40:21;;;;;;;30.08;5.75;;;;;;;;;;5031456;28;20478;-74
2023/01/13 04:42:47;;;;;;;30.63;4.78;;;;;;;;;;5041452;28;20180;-74
2023/01/13 04:45:13;;;;;;;36.03;6.43;;;;;;;;;;5038199;28;20099;-74
2023/01/13 04:47:40;;;;;;;31.85;5.90;;;;;;;;;;5034005;28;20390;-74
2023/01/13 04:50:07;;;;;;;31.70;5.93;;;;;;;;;;5042027;28;20056;-74
2023/01/13 04:52:33;;;;;;;23.50;4.90;;;;;;;;;;5041903;28;20041;-74
2023/01/13 04:54:59;;;;;;;23.75;5.10;;;;;;;;;;5040238;28;20140;-74
2023/01/13 04:57:25;;;;;;;32.58;6.13;;;;;;;;;;5033191;28;20124;-74
2023/01/13 04:59:51;;;;;;;30.83;5.35;;;;;;;;;;5031712;28;20041;-74
2023/01/13 05:02:20;;;;;;;21.50;4.35;;;;;;;;;;5035273;28;20041;-74
2023/01/13 05:04:47;;;;;;;29.63;4.40;;;;;;;;;;5041243;28;20492;-74
2023/01/13 05:07:14;;;;;;;27.08;4.95;;;;;;;;;;5043668;28;20106;-74
2023/01/13 05:09:40;;;;;;;23.90;5.35;;;;;;;;;;5034989;28;20095;-74
2023/01/13 05:17:35;;;;;;;25.10;5.30;;;;;;;;;;5052089;28;20131;-74
2023/01/13 05:20:01;;;;;;;27.35;5.15;;;;;;;;;;5032090;28;20045;-74
2023/01/13 05:25:21;;;;;;;25.50;5.20;;;;;;;;;;5033362;28;20091;-74
2023/01/13 05:27:51;;;;;;;24.05;5.05;;;;;;;;;;5034375;28;20049;-74
2023/01/13 05:30:18;;;;;;;24.90;3.90;;;;;;;;;;5052974;28;20084;-74
2023/01/13 05:32:44;;;;;;;28.52;4.57;;;;;;;;;;5052560;28;20538;-74
2023/01/13 05:35:10;;;;;;;21.40;4.22;;;;;;;;;;5051979;28;20037;-74
2023/01/13 05:37:37;;;;;;;23.08;4.53;;;;;;;;;;5051309;28;20477;-74
2023/01/13 05:45:33;;;;;;;24.83;3.85;;;;;;;;;;5034400;28;20049;-74
2023/01/13 05:47:59;;;;;;;25.52;4.53;;;;;;;;;;5034703;28;20095;-74
2023/01/13 05:50:25;;;;;;;26.95;4.32;;;;;;;;;;5033198;28;20103;-74
2023/01/13 05:52:51;;;;;;;20.10;4.40;;;;;;;;;;5034880;28;20049;-74
2023/01/13 05:55:17;;;;;;;22.85;4.22;;;;;;;;;;5034401;28;20133;-74
2023/01/13 05:57:43;;;;;;;22.52;3.95;;;;;;;;;;5052750;28;20068;-74
2023/01/13 06:00:09;;;;;;;21.25;4.03;;;;;;;;;;5041911;28;20050;-74
2023/01/13 06:02:35;;;;;;;20.55;4.00;;;;;;;;;;5046469;28;20461;-73
2023/01/13 06:05:01;;;;;;;18.23;3.38;;;;;;;;;;5033614;28;20040;-74
2023/01/13 06:07:27;;;;;;;19.30;3.90;;;;;;;;;;5034084;28;20045;-75
2023/01/13 06:09:53;;;;;;;18.92;3.95;;;;;;;;;;5050654;28;20394;-75
2023/01/13 06:12:19;;;;;;;17.63;3.75;;;;;;;;;;5035531;28;20075;-74
2023/01/13 06:14:45;;;;;;;27.35;4.70;;;;;;;;;;5047460;28;20037;-75
2023/01/13 06:17:13;;;;;;;24.48;4.45;;;;;;;;;;5032290;28;20797;-75
2023/01/13 06:19:40;;;;;;;26.15;5.03;;;;;;;;;;5039762;28;20091;-76
2023/01/13 06:22:16;;;;;;;31.38;4.78;;;;;;;;;;5030779;28;20056;-75
2023/01/13 06:24:44;;;;;;;29.05;4.95;;;;;;;;;;5031970;28;20060;-73
2023/01/13 06:27:12;;;;;;;18.75;3.53;;;;;;;;;;5014058;28;20118;-76
2023/01/13 06:29:38;;;;;;;22.52;4.32;;;;;;;;;;5030829;28;20568;-76
2023/01/13 06:32:11;;;;;;;32.22;5.15;;;;;;;;;;5047812;28;20478;-76
2023/01/13 06:34:38;;;;;;;25.33;5.10;;;;;;;;;;5030592;28;20393;-76
2023/01/13 06:37:04;;;;;;;27.13;4.47;;;;;;;;;;5043970;28;20111;-76
2023/01/13 06:39:31;;;;;;;18.30;3.55;;;;;;;;;;5034123;28;20452;-76
2023/01/13 06:44:43;;;;;;;25.48;4.82;;;;;;;;;;5032102;28;20049;-73
2023/01/13 06:47:09;;;;;;;22.30;4.70;;;;;;;;;;5013547;28;20083;-74
2023/01/13 06:49:35;;;;;;;19.10;4.50;;;;;;;;;;5040459;28;20068;-76
2023/01/13 06:52:01;;;;;;;24.40;4.25;;;;;;;;;;5041548;28;20148;-76
2023/01/13 06:54:27;;;;;;;21.80;4.07;;;;;;;;;;5033279;28;20095;-73
2023/01/13 06:56:53;;;;;;;25.08;4.43;;;;;;;;;;5033562;28;20444;-76
2023/01/13 06:59:19;;;;;;;22.33;4.70;;;;;;;;;;5032594;28;20489;-74
2023/01/13 07:01:45;;;;;;;22.30;4.57;;;;;;;;;;5034833;28;20051;-74
2023/01/13 07:04:11;;;;;;;21.00;4.07;;;;;;;;;;5036608;28;20051;-74
2023/01/13 07:06:37;;;;;;;18.73;3.42;;;;;;;;;;5036927;28;20041;-74
2023/01/13 07:09:03;;;;;;;16.83;3.53;;;;;;;;;;5036692;28;20045;-74
2023/01/13 07:11:29;;;;;;;14.77;2.80;;;;;;;;;;5034116;28;20045;-74
2023/01/13 07:16:43;;;;;;;20.77;4.63;;;;;;;;;;5037750;28;20050;-74
2023/01/13 07:19:09;;;;;;;18.30;4.07;;;;;;;;;;5013086;28;20127;-75
2023/01/13 07:21:35;;;;;;;18.25;3.85;;;;;;;;;;5036801;28;20041;-74
2023/01/13 07:24:01;;;;;;;20.05;3.65;;;;;;;;;;5018375;28;20106;-74
2023/01/13 07:26:27;;;;;;;22.70;4.20;;;;;;;;;;5036590;28;20056;-74
2023/01/13 07:28:53;;;;;;;22.05;3.83;;;;;;;;;;5036818;28;20056;-74
2023/01/13 07:31:20;;;;;;;17.55;3.53;;;;;;;;;;5036723;28;20053;-75
2023/01/13 07:33:46;;;;;;;19.58;4.30;;;;;;;;;;5054383;28;20382;-74
2023/01/13 07:36:13;;;;;;;15.15;3.40;;;;;;;;;;5042312;28;20561;-74
2023/01/13 07:38:39;;;;;;;23.00;4.60;;;;;;;;;;5033580;28;20088;-74
2023/01/13 07:43:51;;;;;;;24.23;4.32;;;;;;;;;;5033450;28;20139;-74
2023/01/13 07:46:18;;;;;;;18.25;3.83;;;;;;;;;;5033012;28;20063;-74
2023/01/13 07:48:44;;;;;;;25.75;3.58;;;;;;;;;;5035456;28;20045;-74
2023/01/13 07:51:11;;;;;;;20.90;3.95;;;;;;;;;;5035310;28;20056;-74
2023/01/13 07:53:37;;;;;;;14.68;2.97;;;;;;;;;;5032680;28;20045;-74
2023/01/13 07:56:04;;;;;;;25.83;4.43;;;;;;;;;;5046775;28;20041;-75
2023/01/13 07:58:30;;;;;;;23.10;4.55;;;;;;;;;;5052878;28;20054;-74
2023/01/13 08:00:56;;;;;;;24.23;3.85;;;;;;;;;;5032781;28;20128;-75
2023/01/13 08:03:23;;;;;;;21.70;4.32;;;10.00;99.90;;;;;;5053331;28;20048;-74
2023/01/13 08:05:49;;;;;;;24.83;4.45;;;8.20;99.90;;;;;;5053751;28;20044;-74
2023/01/13 08:08:15;;;;;;;23.90;5.05;;;8.30;99.90;;;;;;5035341;28;20040;-74
2023/01/13 08:10:40;;;;;;;20.73;3.88;;;9.60;99.90;;;;;;5052569;28;20323;-74
2023/01/13 08:13:16;;;;;;;17.20;3.80;;;8.20;99.90;;;;;;5047762;28;20042;-74
2023/01/13 08:15:42;;;;;;;25.25;4.72;;;8.20;99.90;;;;;;5051133;28;20114;-74
2023/01/13 08:18:08;;;;;;;30.05;5.28;;;8.20;99.90;;;;;;5048545;28;20094;-74
2023/01/13 08:20:34;;;;;;;23.73;3.60;;;9.40;99.90;;;;;;5053610;28;20480;-74
2023/01/13 08:23:00;;;;;;;23.83;4.53;;;8.90;99.90;;;;;;5034925;28;20127;-74
2023/01/13 08:25:27;;;;;;;27.10;4.80;;;8.30;99.90;;;;;;5035034;28;20106;-74
2023/01/13 08:27:54;;;;;;;26.35;4.95;;;8.40;99.90;;;;;;5035102;28;20045;-74
2023/01/13 08:30:20;;;;;;;29.45;5.00;;;9.60;99.90;;;;;;5053503;28;20041;-74
2023/01/13 08:32:47;;;;;;;21.52;3.70;;;8.40;99.90;;;;;;5031396;28;20096;-73
2023/01/13 08:35:14;;;;;;;26.48;4.80;;;8.80;99.90;;;;;;5047808;28;20044;-74
2023/01/13 08:37:40;;;;;;;26.90;4.30;;;8.50;99.90;;;;;;5053420;28;20045;-74
2023/01/13 08:40:07;;;;;;;26.20;4.53;;;9.40;99.90;;;;;;5053410;28;20393;-74
2023/01/13 08:42:33;;;;;;;24.38;4.22;;;8.50;99.90;;;;;;5035363;28;20561;-74
2023/01/13 08:44:58;;;;;;;20.52;4.38;;;8.60;99.90;;;;;;5035211;28;20128;-74
2023/01/13 08:47:26;;;;;;;25.58;4.95;;;8.60;99.90;;;;;;5034237;28;20128;-74
2023/01/13 08:49:52;;;;;;;18.55;4.13;;;;;;;;;;5031790;28;20121;-74
2023/01/13 08:52:18;;;;;;;21.33;4.60;;;8.70;99.90;;;;;;5035065;28;20127;-74
2023/01/13 08:54:43;;;;;;;24.23;5.28;;;9.70;99.90;;;;;;5050780;28;20044;-74
2023/01/13 08:57:09;;;;;;;22.67;3.92;;;8.70;99.90;;;;;;5035158;28;20048;-75
2023/01/13 08:59:35;;;;;;;24.15;4.00;;;;;;;;;;5052954;28;20445;-74
2023/01/13 09:02:02;;;;;;;21.38;4.45;;;;;;;;;;5051061;28;20163;-75
2023/01/13 09:04:29;;;;;;;25.50;4.53;;;;;;;;;;5034828;28;20044;-75
2023/01/13 09:06:55;;;;;;;24.60;4.93;;;8.70;99.90;;;;;;5052931;28;20044;-74
2023/01/13 09:09:21;;;;;;;24.58;4.32;;;8.70;99.90;;;;;;5040188;28;20574;-75
2023/01/13 09:14:36;;;;;;;26.45;6.28;;;8.60;99.90;;;;;;5014793;28;20505;-74
2023/01/13 09:17:02;;;;;;;23.92;3.80;;;8.50;99.90;;;;;;5039149;28;20044;-74
2023/01/13 09:19:28;;;;;;;23.55;4.68;;;9.90;99.90;;;;;;5030859;28;20033;-75
2023/01/13 09:21:55;;;;;;;22.70;4.78;;;8.40;99.90;;;;;;5026215;28;20045;-75
2023/01/13 09:24:22;;;;;;;16.52;4.10;;;8.30;99.90;;;;;;5039513;28;20057;-72
2023/01/13 09:26:48;;;;;;;19.15;3.55;;;8.70;99.90;;;;;;5040877;28;20053;-72
2023/01/13 09:29:15;;;;;;;21.60;3.80;;;8.60;99.90;;;;;;5050149;28;20044;-72
2023/01/13 09:31:41;;;;;;;21.60;4.00;;;9.10;99.90;;;;;;5043343;28;20547;-72
2023/01/13 09:36:53;;;;;;;19.75;4.00;;;8.40;99.90;;;;;;5033606;28;20089;-73
2023/01/13 09:39:19;;;;;;;20.13;3.95;;;9.30;99.90;;;;;;5052388;28;20084;-73
2023/01/13 09:45:03;;;;;;;22.50;4.57;;;8.10;99.90;;;;;;5041933;28;20052;-72
2023/01/13 09:47:38;;;;;;;24.10;4.15;;;8.00;99.90;;;;;;5017666;28;20057;-72
2023/01/13 09:50:12;;;;;;;22.15;4.30;;;9.00;99.90;;;;;;5016704;28;20125;-73
2023/01/13 09:52:39;;;;;;;19.45;3.97;;;8.00;99.90;;;;;;5026753;28;20045;-72
2023/01/13 09:55:17;;;;;;;22.45;4.20;;;8.90;99.90;;;;;;5020941;28;20047;-76
2023/01/13 09:57:42;;;;;;;23.10;4.50;;;8.10;99.90;;;;;;5043512;28;20395;-73
2023/01/13 10:00:20;;;;;;;24.90;4.65;;;8.10;99.90;;;;;;5043076;28;20080;-75
2023/01/13 10:03:16;;;;;;;17.60;3.35;;;8.00;99.90;;;;;;5032753;28;20053;-75
2023/01/13 10:05:49;;;;;;;25.42;4.40;;;8.00;99.90;;;;;;5047418;28;20045;-75
2023/01/13 10:08:29;;;;;;;23.05;4.43;;;8.00;99.90;;;;;;5017953;28;20478;-73
2023/01/13 10:13:55;;;;;;;19.00;4.47;;;7.80;99.90;;;;;;5043155;28;20046;-75
2023/01/13 10:16:35;;;;;;;21.83;4.20;;;7.80;99.90;;;;;;5014101;28;20084;-74
2023/01/13 10:19:04;;;;;;;25.00;4.40;;;7.80;99.90;;;;;;5032321;28;20052;-75
2023/01/13 10:22:00;;;;;;;19.48;4.53;;;8.60;99.90;;;;;;5033737;28;20056;-76
2023/01/13 10:24:48;;;;;;;22.10;3.80;;;7.90;99.90;;;;;;5033839;28;20056;-74
2023/01/13 10:27:34;;;;;;;20.27;3.78;;;8.10;99.90;;;;;;5029605;28;20474;-74
2023/01/13 10:30:31;;;;;;;15.32;4.10;;;8.60;99.90;;;;;;5032019;28;20091;-74
2023/01/13 10:33:00;;;;;;;18.58;4.40;;;8.10;99.90;;;;;;5015435;28;20057;-74
2023/01/13 10:35:50;;;;;;;20.77;4.07;;;9.50;99.90;;;;;;5035997;28;20072;-79
2023/01/13 10:38:25;;;;;;;19.27;4.10;;;8.20;99.90;;;;;;5035584;28;20394;-74
2023/01/13 10:40:57;;;;;;;19.63;3.55;;;8.30;99.90;;;;;;5037153;28;20057;-75
2023/01/13 10:43:24;;;;;;;25.60;3.70;;;8.40;99.90;;;;;;5036650;28;20041;-76
2023/01/13 10:46:00;;;;;;;24.20;4.50;;;8.40;99.90;;;;;;5036545;28;20045;-75
2023/01/13 10:48:38;;;;;;;21.98;4.82;;;8.90;99.90;;;;;;5036050;28;20481;-74
2023/01/13 10:51:13;;;;;;;22.02;4.03;;;8.50;99.90;;;;;;5050235;28;20041;-75
2023/01/13 10:54:14;;;;;;;24.92;3.95;;;8.80;99.90;;;;;;5033362;28;20073;-75
2023/01/13 10:56:43;;;;;;;20.25;3.95;;;8.50;99.90;;;;;;5016205;28;20061;-75
2023/01/13 10:59:17;;;;;;;28.13;4.07;;;8.60;99.90;;;;;;5033932;28;20135;-76
2023/01/13 11:01:56;;;;;;;16.90;4.07;;;;;;;;;;5034326;28;20064;-75
2023/01/13 11:04:32;;;;;;;19.85;3.53;;;;;;;;;;5034020;28;20041;-75
2023/01/13 11:06:59;;;;;;;16.88;3.83;;;8.60;99.90;;;;;;5033730;28;20052;-75
2023/01/13 11:09:26;;;;;;;21.55;3.83;;;9.60;99.90;;;;;;5034977;28;20536;-75
2023/01/13 11:11:55;;;;;;;21.80;4.90;;;;;;;;;;5033519;28;20453;-75
2023/01/13 11:14:38;;;;;;;19.73;3.38;;;;;;;;;;5033493;28;20034;-76
2023/01/13 11:17:22;;;;;;;13.60;2.88;;;9.90;99.90;;;;;;5034502;28;20060;-75
2023/01/13 11:19:51;;;;;;;13.27;2.92;;;;;;;;;;5036554;28;20052;-75
2023/01/13 11:22:24;;;;;;;19.52;3.83;;;;;;;;;;5035423;28;20365;-75
2023/01/13 11:25:00;;;;;;;19.75;3.75;;;;;;;;;;5054443;28;20049;-75
2023/01/13 11:27:41;;;;;;;18.77;3.95;;;;;;;;;;5054855;28;20491;-75
2023/01/13 11:30:19;;;;;;;15.18;3.60;;;;;;;;;;5020220;28;20048;-75
2023/01/13 11:32:56;;;;;;;16.42;4.03;;;;;;;;;;5036447;28;20045;-75
2023/01/13 11:35:23;;;;;;;20.63;3.65;;;;;;;;;;5054252;28;20464;-75
2023/01/13 11:37:53;;;;;;;19.67;4.18;;;;;;;;;;5036902;28;20142;-75
2023/01/13 11:40:19;;;;;;;19.63;3.83;;;;;;;;;;5054566;28;20128;-75
2023/01/13 11:43:00;;;;;;;15.43;3.75;;;;;;;;;;5036427;28;20171;-75
2023/01/13 11:45:38;;;;;;;16.90;3.45;;;;;;;;;;5052995;28;20052;-75
2023/01/13 11:48:04;;;;;;;16.52;3.50;;;;;;;;;;5036207;28;20177;-75
2023/01/13 11:50:30;;;;;;;17.40;3.45;;;;;;;;;;5036330;28;20466;-75
2023/01/13 11:53:09;;;;;;;19.05;3.15;;;;;;;;;;5019854;28;20049;-75
2023/01/13 11:56:01;;;;;;;17.48;3.70;;;;;;;;;;5036350;28;20052;-75
2023/01/13 11:58:36;;;;;;;13.90;3.35;;;;;;;;;;5023478;28;20057;-75
2023/01/13 12:01:02;;;;;;;19.50;3.07;;;;;;;;;;5054288;28;20131;-75
2023/01/13 12:03:29;;;;;;;14.20;3.17;;;;;;;;;;5053689;28;20199;-75
2023/01/13 12:06:02;;;;;;;13.55;3.47;;;;;;;;;;5036026;28;20040;-75
2023/01/13 12:08:47;;;;;;;16.63;3.38;;;;;;;;;;5036562;28;20084;-75
2023/01/13 12:11:32;;;;;;;16.83;3.33;;;;;;;;;;5036016;28;20040;-75
2023/01/13 12:13:58;;;;;;;16.33;3.38;;;;;;;;;;5035930;28;20047;-74
2023/01/13 12:16:25;;;;;;;15.57;3.28;;;;;;;;;;5054003;28;20052;-75
2023/01/13 12:18:54;;;;;;;16.88;3.17;;;;;;;;;;5017758;28;20041;-75
2023/01/13 12:21:25;;;;;;;15.95;3.10;;;;;;;;;;5053578;28;20051;-75
2023/01/13 12:24:12;;;;;;;15.85;3.15;;;;;;;;;;5053206;28;20460;-75
2023/01/13 12:26:40;;;;;;;15.73;3.75;;;;;;;;;;5050119;28;20048;-76
2023/01/13 12:29:06;;;;;;;10.23;2.92;;;;;;;;;;5035481;28;20041;-75
2023/01/13 12:31:35;;;;;;;15.02;2.97;;;;;;;;;;5053428;28;20040;-75
2023/01/13 12:34:01;;;;;;;13.13;2.67;;;;;;;;;;5035401;28;20110;-73
2023/01/13 12:36:40;;;;;;;14.07;2.95;;;;;;;;;;5035352;28;20044;-69
2023/01/13 12:39:15;;;;;;;17.75;2.63;;;;;;;;;;5028626;28;20049;-69
2023/01/13 12:45:03;;;;;;;10.48;2.70;;;;;;;;;;4996334;28;20057;-69
2023/01/13 12:47:47;;;;;;;11.15;2.72;;;;;;;;;;5045949;28;20055;-70
2023/01/13 12:50:22;;;;;;;14.98;3.00;;;;;;;;;;5015453;28;20037;-71
2023/01/13 12:52:51;;;;;;;10.02;2.78;;;;;;;;;;5031119;28;20068;-68
2023/01/13 12:55:37;;;;;;;18.73;3.63;;;;;;;;;;5047280;28;20073;-69
2023/01/13 12:58:03;;;;;;;;;;;;;;;;;;5046436;28;20049;-69
2023/01/13 13:00:39;;;;;;;16.70;3.70;;;;;;;;;;5030809;28;19931;-69
2023/01/13 13:03:11;;;;;;;11.38;2.63;;;;;;;;;;5049302;28;20383;-69
2023/01/13 13:05:49;;;;;;;15.80;2.75;;;;;;;;;;5026381;28;20045;-69
2023/01/13 13:08:31;;;;;;;15.48;2.72;;;;;;;;;;5044977;28;20774;-69
2023/01/13 13:11:01;;;;;;;13.77;3.15;;;;;;;;;;5012814;28;20082;-70
2023/01/13 13:13:47;;;;;;;14.43;2.75;;;;;;;;;;5031140;28;20037;-69
2023/01/13 13:16:26;;;;;;;12.65;2.70;;;;;;;;;;5029076;28;20438;-68
2023/01/13 13:18:52;;;;;;;10.35;3.28;;;;;;;;;;5045477;28;20052;-68
2023/01/13 13:21:18;;;;;;;11.50;2.40;;;;;;;;;;5029044;28;20477;-68
2023/01/13 13:23:56;;;;;;;8.07;2.20;;;;;;;;;;5030358;28;20420;-70
2023/01/13 13:26:27;;;;;;;11.95;2.50;;;;;;;;;;5015124;28;20140;-70
2023/01/13 13:28:53;;;;;;;12.65;2.78;;;;;;;;;;5031839;28;20036;-70
2023/01/13 13:31:34;;;;;;;11.20;2.08;;;;;;;;;;5031764;28;20047;-70
2023/01/13 13:34:15;;;;;;;13.85;2.97;;;;;;;;;;5049183;28;20151;-70
2023/01/13 13:37:00;;;;;;;13.75;2.70;;;;;;;;;;5029496;28;20049;-71
2023/01/13 13:47:45;;;;;;;18.17;3.13;;;;;;;;;;5027703;28;20510;-71
2023/01/13 13:50:13;;;;;;;16.10;2.72;;;;;;;;;;5039605;28;20431;-71
2023/01/13 13:52:41;;;;;;;14.45;2.97;;;;;;;;;;5029262;28;20050;-76
2023/01/13 13:55:18;;;;;;;11.98;2.88;;;;;;;;;;5030453;28;20376;-76
2023/01/13 13:57:46;;;;;;;17.13;3.13;;;;;;;;;;5031216;28;20461;-75
2023/01/13 14:00:12;;;;;;;10.70;2.60;;;;;;;;;;5051595;28;20049;-76
2023/01/13 14:02:38;;;;;;;10.20;3.00;;;;;;;;;;5030128;28;20053;-78
2023/01/13 14:05:15;;;;;;;12.43;2.70;;;;;;;;;;5033026;28;20440;-77
2023/01/13 14:07:46;;;;;;;10.10;2.40;;;;;;;;;;5018067;28;20490;-78
2023/01/13 14:10:15;;;;;;;16.48;3.67;;;;;;;;;;5055815;28;20052;-78
2023/01/13 14:12:41;;;;;;;11.85;2.20;;;;;;;;;;5037016;28;20044;-78
2023/01/13 14:15:22;;;;;;;17.38;2.70;;;;;;;;;;5055386;28;20106;-78
2023/01/13 14:17:48;;;;;;;7.45;2.13;;;;;;;;;;5021000;28;20045;-78
2023/01/13 14:20:17;;;;;;;13.93;3.05;;;;;;;;;;5054639;28;20063;-78
2023/01/13 14:22:50;;;;;;;11.48;2.63;;;;;;;;;;5054616;28;20036;-78
2023/01/13 14:25:38;;;;;;;16.58;4.10;;;;;;;;;;5055588;28;20405;-78
2023/01/13 14:28:18;;;;;;;13.68;3.28;;;;;;;;;;5021263;28;20049;-78
2023/01/13 14:30:44;;;;;;;11.38;2.25;;;;;;;;;;5056132;28;20148;-78
2023/01/13 14:33:16;;;;;;;13.75;2.83;;;;;;;;;;5037643;28;20083;-78
2023/01/13 14:36:01;;;;;;;14.50;2.72;;;;;;;;;;5055695;28;20044;-78
2023/01/13 14:38:27;;;;;;;15.65;3.03;;;;;;;;;;5038153;28;20110;-78
2023/01/13 14:40:53;;;;;;;16.10;3.30;;;;;;;;;;5037547;28;20049;-78
2023/01/13 14:43:22;;;;;;;11.00;3.10;;;;;;;;;;5037525;28;20049;-78
2023/01/13 14:45:56;;;;;;;14.88;2.90;;;;;;;;;;5037683;28;20045;-78
2023/01/13 14:48:25;;;;;;;13.25;2.60;;;;;;;;;;5037643;28;20489;-78
2023/01/13 14:50:51;;;;;;;15.95;3.25;;;;;;;;;;5037271;28;20060;-78
2023/01/13 14:53:37;;;;;;;17.52;3.80;;;;;;;;;;5037152;28;20053;-78
2023/01/13 14:56:22;;;;;;;13.70;2.97;;;;;;;;;;5055564;28;20051;-78
2023/01/13 14:58:48;;;;;;;16.50;3.45;;;;;;;;;;5037559;28;20045;-78
2023/01/13 15:01:26;;;;;;;14.20;2.58;;;;;;;;;;5037369;28;20393;-78
2023/01/13 15:03:52;;;;;;;16.45;3.17;;;;;;;;;;5037386;28;20041;-78
2023/01/13 15:06:21;;;;;;;15.07;2.88;;;;;;;;;;5055139;28;20037;-77
2023/01/13 15:08:49;;;;;;;14.25;3.05;;;;;;;;;;5036938;28;20397;-78
2023/01/13 15:11:21;;;;;;;12.23;2.70;;;;;;;;;;5054449;28;20056;-78
2023/01/13 15:14:10;;;;;;;14.57;3.10;;;;;;;;;;5036841;28;20064;-78
2023/01/13 15:16:36;;;;;;;14.57;2.90;;;;;;;;;;5055084;28;20120;-78
2023/01/13 15:19:03;;;;;;;10.55;2.67;;;;;;;;;;5036260;28;20052;-78
2023/01/13 15:21:29;;;;;;;12.68;3.10;;;;;;;;;;5054907;28;20137;-78
2023/01/13 15:23:55;;;;;;;19.13;3.33;;;;;;;;;;5036451;28;20448;-78